Time;durP1;ratioP1;P1;durP2;ratioP2;P2;SDS_P1;SDS_P2;PMS_P1;PMS_P2;Temp;Humidity;BMP_temperature;BMP_pressure;BME280_temperature;BME280_humidity;BME280_pressure;Samples;Min_cycle;Max_cycle;Signal;HPM_P1;HPM_P2
2022/10/21 00:00:11;;;;;;;30.17;19.60;;;;;;;3.80;79.19;101480.97;1629346;87;25904;-79
2022/10/21 00:02:41;;;;;;;26.68;18.07;;;;;;;3.78;78.99;101474.09;1617137;88;25771;-79
2022/10/21 00:05:07;;;;;;;27.52;18.73;;;;;;;3.75;78.93;101474.33;1618145;88;26478;-78
2022/10/21 00:07:34;;;;;;;28.00;19.30;;;;;;;3.71;78.70;101468.44;1628557;87;27491;-79
2022/10/21 00:10:03;;;;;;;29.37;18.95;;;;;;;3.66;78.67;101477.22;1618162;88;26368;-80
2022/10/21 00:12:30;;;;;;;34.40;20.02;;;;;;;3.63;78.62;101477.48;1614372;88;25971;-79
2022/10/21 00:14:57;;;;;;;33.02;19.70;;;;;;;3.59;78.73;101468.06;1620562;88;25824;-79
2022/10/21 00:17:23;;;;;;;27.48;18.32;;;;;;;3.56;78.85;101461.70;1618678;88;25913;-79
2022/10/21 00:19:50;;;;;;;31.65;19.07;;;;;;;3.53;78.71;101448.69;1617207;87;27492;-78
2022/10/21 00:22:16;;;;;;;27.60;19.05;;;;;;;3.51;78.65;101454.59;1616087;88;26483;-78
2022/10/21 00:24:42;;;;;;;30.20;19.00;;;;;;;3.49;78.72;101457.84;1622713;87;25942;-79
2022/10/21 00:27:11;;;;;;;28.15;18.75;;;;;;;3.46;78.91;101462.08;1616561;87;25910;-78
2022/10/21 00:29:37;;;;;;;27.32;17.35;;;;;;;3.44;79.01;101464.00;1618997;87;25887;-79
2022/10/21 00:32:05;;;;;;;27.87;18.40;;;;;;;3.41;78.89;101473.97;1618788;88;26801;-80
2022/10/21 00:34:32;;;;;;;29.67;19.40;;;;;;;3.40;78.92;101468.33;1628735;86;25905;-80
2022/10/21 00:36:58;;;;;;;32.23;19.30;;;;;;;3.38;78.94;101463.13;1630056;87;25805;-79
2022/10/21 00:39:24;;;;;;;34.13;19.02;;;;;;;3.35;78.87;101459.41;1616142;87;26030;-78
2022/10/21 00:41:50;;;;;;;29.90;19.23;;;;;;;3.35;78.96;101454.13;1617188;87;25732;-79
2022/10/21 00:44:19;;;;;;;30.02;17.25;;;;;;;3.33;78.95;101449.42;1621925;88;28329;-79
2022/10/21 00:46:59;;;;;;;28.92;18.40;;;;;;;3.30;78.77;101448.33;1619323;87;26001;-80
2022/10/21 00:49:43;;;;;;;29.87;18.60;;;;;;;3.29;78.79;101449.78;1619978;88;25892;-79
2022/10/21 00:52:20;;;;;;;32.80;18.55;;;;;;;3.27;78.72;101446.41;1611911;88;26877;-79
2022/10/21 00:54:49;;;;;;;26.97;17.35;;;;;;;3.22;78.75;101445.44;1614410;88;25800;-79
2022/10/21 00:57:18;;;;;;;28.98;18.25;;;;;;;3.20;78.86;101446.05;1611010;87;27461;-80
2022/10/21 00:59:49;;;;;;;26.70;18.50;;;;;;;3.17;78.88;101447.59;1606836;88;25758;-79
2022/10/21 01:02:16;;;;;;;31.15;19.02;;;;;;;3.16;78.88;101445.92;1612085;88;25327;-79
2022/10/21 01:04:44;;;;;;;31.05;18.85;;;;;;;3.14;78.96;101438.08;1607592;88;26009;-79
2022/10/21 01:07:12;;;;;;;35.05;21.42;;;;;;;3.14;78.95;101441.23;1611623;88;25787;-78
2022/10/21 01:09:38;;;;;;;34.85;20.70;;;;;;;3.15;79.05;101438.92;1610299;88;28295;-79
2022/10/21 01:12:10;;;;;;;34.65;19.55;;;;;;;3.16;79.12;101436.66;1591092;89;26410;-80
2022/10/21 01:14:54;;;;;;;33.23;20.05;;;;;;;3.16;79.16;101438.45;1603409;88;25856;-80
2022/10/21 01:17:49;;;;;;;29.32;19.55;;;;;;;3.13;78.99;101431.12;1560203;90;25858;-81
2022/10/21 01:20:30;;;;;;;31.85;18.65;;;;;;;3.11;78.95;101431.72;1611734;88;25759;-79
2022/10/21 01:23:26;;;;;;;28.57;18.70;;;;;;;3.08;78.93;101427.97;1598396;88;28292;-79
2022/10/21 01:26:36;;;;;;;29.98;17.55;;;;;;;3.05;78.89;101416.31;1611105;88;25924;-78
2022/10/21 01:29:08;;;;;;;29.97;18.43;;;;;;;3.02;78.85;101413.89;1609597;88;26594;-78
2022/10/21 01:32:04;;;;;;;34.95;19.98;;;;;;;2.99;78.85;101409.33;1600572;88;26617;-79
2022/10/21 01:34:55;;;;;;;36.55;20.52;;;;;;;2.94;78.92;101407.03;1579962;88;45682;-82
2022/10/21 01:37:57;;;;;;;30.68;19.73;;;;;;;2.91;79.61;101401.97;1566438;90;27505;-79
2022/10/21 01:40:38;;;;;;;39.33;20.85;;;;;;;2.90;79.93;101396.33;1601152;88;26468;-79
2022/10/21 01:43:23;;;;;;;;;;;;;;;2.90;80.00;101383.57;1601810;88;25987;-77
2022/10/21 01:45:57;;;;;;;36.10;19.02;;;;;;;2.88;80.08;101381.05;1607962;88;25641;-79
2022/10/21 01:48:31;;;;;;;34.23;19.40;;;;;;;2.82;79.90;101372.23;1604123;88;25764;-79
2022/10/21 01:51:02;;;;;;;32.10;18.87;;;;;;;2.82;80.14;101366.13;1599127;88;27653;-78
2022/10/21 01:53:32;;;;;;;;;;;;;;;2.79;80.23;101360.59;1568724;91;25989;-77
2022/10/21 01:56:01;;;;;;;33.70;18.35;;;;;;;2.79;80.38;101368.53;1609390;87;25871;-78
2022/10/21 01:58:32;;;;;;;31.45;19.25;;;;;;;2.77;80.51;101354.58;1611100;88;25898;-77
2022/10/21 02:01:02;;;;;;;29.05;18.50;;;;;;;2.76;80.54;101347.59;1605617;88;26550;-78
2022/10/21 02:03:36;;;;;;;34.17;19.37;;;;;;;2.77;80.81;101341.35;1593268;88;28295;-78
2022/10/21 02:06:04;;;;;;;30.97;19.07;;;;;;;2.74;81.09;101344.69;1606064;88;25828;-77
2022/10/21 02:08:30;;;;;;;33.38;18.65;;;;;;;2.73;81.53;101335.09;1565267;91;25601;-78
2022/10/21 02:11:02;;;;;;;35.10;18.62;;;;;;;2.74;81.74;101335.44;1612418;88;26554;-78
2022/10/21 02:13:36;;;;;;;31.77;18.48;;;;;;;2.73;81.91;101325.36;1602420;88;25852;-77
2022/10/21 02:16:07;;;;;;;29.70;17.85;;;;;;;2.74;82.17;101320.41;1602226;88;28713;-78
2022/10/21 02:18:34;;;;;;;32.25;18.40;;;;;;;2.73;82.41;101324.03;1556093;91;25806;-77
2022/10/21 02:21:05;;;;;;;33.23;17.55;;;;;;;2.72;82.57;101320.16;1591119;89;26413;-78
2022/10/21 02:23:54;;;;;;;28.07;17.62;;;;;;;2.69;82.71;101325.23;1603251;88;25796;-78
2022/10/21 02:26:24;;;;;;;25.43;16.75;;;;;;;2.69;82.88;101317.77;1605618;88;26390;-77
2022/10/21 02:28:53;;;;;;;36.90;19.10;;;;;;;2.69;83.07;101308.52;1608221;88;27470;-78
2022/10/21 02:31:51;;;;;;;33.92;19.27;;;;;;;2.70;83.16;101302.25;1605542;88;26517;-79
2022/10/21 02:34:44;;;;;;;36.60;22.42;;;;;;;2.69;83.23;101297.47;1600921;88;26276;-79
2022/10/21 02:37:47;;;;;;;38.63;22.60;;;;;;;2.70;83.36;101298.28;1594460;88;26432;-79
2022/10/21 02:40:37;;;;;;;30.00;19.30;;;;;;;2.62;83.41;101301.53;1584379;89;26561;-79
2022/10/21 02:43:08;;;;;;;29.05;17.73;;;;;;;2.60;83.70;101304.78;1604989;88;26908;-78
2022/10/21 02:45:35;;;;;;;33.18;17.70;;;;;;;2.58;83.83;101309.83;1601933;88;26020;-77
2022/10/21 02:48:02;;;;;;;29.32;16.75;;;;;;;2.58;83.91;101308.50;1611365;88;25840;-78
2022/10/21 02:50:29;;;;;;;28.57;16.67;;;;;;;2.59;84.00;101313.66;1592779;89;26494;-79
2022/10/21 02:52:55;;;;;;;36.33;18.57;;;;;;;2.59;84.04;101313.66;1612383;88;26411;-79
2022/10/21 02:55:21;;;;;;;31.75;17.52;;;;;;;2.64;84.00;101309.34;1608966;88;28677;-77
2022/10/21 02:57:47;;;;;;;30.95;16.70;;;;;;;2.65;83.91;101301.28;1611746;88;25839;-78
2022/10/21 03:00:14;;;;;;;30.77;16.30;;;;;;;2.67;83.95;101294.58;1600249;89;25816;-78
2022/10/21 03:02:41;;;;;;;27.60;18.42;;;;;;;2.69;83.95;101290.00;1619741;88;27069;-77
2022/10/21 03:05:08;;;;;;;27.90;16.50;;;;;;;2.71;83.93;101288.92;1616467;88;25810;-79
2022/10/21 03:07:35;;;;;;;31.27;17.45;;;;;;;2.73;84.00;101275.57;1617753;87;27485;-79
2022/10/21 03:10:01;;;;;;;32.50;18.73;;;;;;;2.72;83.95;101265.47;1612264;87;25589;-77
2022/10/21 03:12:27;;;;;;;34.27;18.87;;;;;;;2.70;84.01;101266.55;1598279;88;26479;-78
2022/10/21 03:14:54;;;;;;;36.68;19.55;;;;;;;2.69;84.10;101267.05;1620447;88;26563;-78
2022/10/21 03:17:20;;;;;;;26.55;17.20;;;;;;;2.68;84.13;101264.03;1619387;88;25917;-79
2022/10/21 03:19:46;;;;;;;29.23;16.80;;;;;;;2.69;84.21;101265.72;1616952;87;26953;-79
2022/10/21 03:22:12;;;;;;;27.07;17.25;;;;;;;2.71;84.33;101257.19;1621434;88;25986;-79
2022/10/21 03:24:39;;;;;;;29.60;16.75;;;;;;;2.72;84.17;101255.36;1621558;87;26517;-76
2022/10/21 03:27:05;;;;;;;26.07;16.37;;;;;;;2.73;84.16;101261.02;1614808;88;25991;-78
2022/10/21 03:29:31;;;;;;;33.35;18.02;;;;;;;2.73;84.22;101259.70;1618931;88;26242;-79
2022/10/21 03:31:58;;;;;;;30.30;18.00;;;;;;;2.74;84.28;101264.01;1616115;87;28656;-77
2022/10/21 03:34:24;;;;;;;29.95;17.67;;;;;;;2.76;84.28;101263.44;1614879;88;25964;-77
2022/10/21 03:36:50;;;;;;;34.75;17.95;;;;;;;2.78;84.26;101263.66;1615246;88;25965;-78
2022/10/21 03:39:16;;;;;;;29.32;17.50;;;;;;;2.81;84.16;101256.81;1614946;88;25810;-78
2022/10/21 03:41:43;;;;;;;31.35;18.50;;;;;;;2.84;84.14;101252.61;1618988;88;25836;-78
2022/10/21 03:44:09;;;;;;;30.37;18.07;;;;;;;2.85;84.08;101252.11;1615946;87;27479;-79
2022/10/21 03:46:36;;;;;;;29.32;18.75;;;;;;;2.87;84.14;101255.47;1614963;88;25890;-77
2022/10/21 03:49:02;;;;;;;35.50;20.85;;;;;;;2.88;84.04;101246.11;1611671;87;25860;-79
2022/10/21 03:51:28;;;;;;;34.53;20.15;;;;;;;2.90;84.02;101244.19;1600596;89;26550;-79
2022/10/21 03:53:54;;;;;;;32.58;20.23;;;;;;;2.93;83.95;101240.45;1622616;87;25823;-77
2022/10/21 03:56:21;;;;;;;31.60;20.57;;;;;;;2.95;83.94;101241.17;1597615;89;27493;-78
2022/10/21 03:58:47;;;;;;;32.83;20.90;;;;;;;2.96;83.91;101237.55;1558801;91;25324;-79
2022/10/21 04:01:13;;;;;;;30.27;18.90;;;;;;;2.97;83.93;101242.70;1557709;91;25778;-77
2022/10/21 04:03:40;;;;;;;28.87;18.57;;;;;;;2.98;83.90;101235.62;1560874;91;26626;-78
2022/10/21 04:06:07;;;;;;;29.23;17.75;;;;;;;2.98;83.99;101235.14;1557910;91;25795;-79
2022/10/21 04:08:33;;;;;;;34.70;18.23;;;;;;;3.00;84.11;101233.69;1554484;91;27574;-78
2022/10/21 04:10:59;;;;;;;36.28;18.60;;;;;;;2.98;84.15;101227.20;1591693;89;25765;-79
2022/10/21 04:13:26;;;;;;;28.12;17.07;;;;;;;3.00;84.14;101229.25;1609633;88;26288;-78
2022/10/21 04:16:02;;;;;;;29.42;17.70;;;;;;;3.01;84.24;101217.71;1612878;88;26563;-78
2022/10/21 04:18:28;;;;;;;25.62;16.62;;;;;;;3.01;84.21;101213.74;1601874;88;26074;-78
2022/10/21 04:20:55;;;;;;;29.42;17.40;;;;;;;3.03;84.31;101213.61;1605174;88;27489;-78
2022/10/21 04:23:22;;;;;;;24.85;16.20;;;;;;;3.03;84.40;101214.93;1602094;88;25845;-79
2022/10/21 04:25:48;;;;;;;29.63;17.90;;;;;;;3.03;84.44;101209.16;1612045;88;25875;-78
2022/10/21 04:28:14;;;;;;;26.15;15.45;;;;;;;3.03;84.44;101209.64;1605355;88;26471;-77
2022/10/21 04:30:40;;;;;;;26.80;16.45;;;;;;;3.01;84.46;101203.16;1604964;88;26169;-77
2022/10/21 04:33:07;;;;;;;27.22;16.65;;;;;;;3.00;84.54;101212.05;1607177;88;28329;-81
2022/10/21 04:35:33;;;;;;;30.15;16.75;;;;;;;3.00;84.62;101206.75;1609603;88;25981;-79
2022/10/21 04:37:59;;;;;;;29.95;17.00;;;;;;;3.03;84.67;101206.99;1606514;87;25745;-78
2022/10/21 04:40:26;;;;;;;27.13;15.93;;;;;;;3.00;84.60;101204.11;1612860;88;26317;-77
2022/10/21 04:42:53;;;;;;;27.22;16.05;;;;;;;3.02;84.78;101199.53;1613515;88;26018;-76
2022/10/21 04:45:19;;;;;;;23.55;15.10;;;;;;;3.06;84.69;101189.05;1611968;88;27553;-79
2022/10/21 04:47:45;;;;;;;27.13;15.65;;;;;;;3.05;84.57;101190.03;1606944;88;26588;-78
2022/10/21 04:50:12;;;;;;;25.45;15.63;;;;;;;3.05;84.60;101188.70;1612897;88;26467;-79
2022/10/21 04:52:38;;;;;;;24.25;14.78;;;;;;;3.05;84.63;101170.66;1613593;88;26615;-77
2022/10/21 04:55:05;;;;;;;31.07;18.37;;;;;;;3.04;84.58;101161.87;1613082;88;25851;-79
2022/10/21 04:57:32;;;;;;;31.80;18.32;;;;;;;3.03;84.59;101149.63;1615338;87;26893;-78
2022/10/21 04:59:58;;;;;;;34.25;20.25;;;;;;;3.02;84.54;101145.75;1620912;88;25919;-77
2022/10/21 05:02:24;;;;;;;34.05;20.60;;;;;;;3.00;84.62;101136.62;1621425;88;25911;-78
2022/10/21 05:04:50;;;;;;;37.73;23.00;;;;;;;3.01;84.67;101135.67;1620176;88;26405;-78
2022/10/21 05:07:17;;;;;;;34.13;19.40;;;;;;;2.99;84.64;101132.28;1614706;88;25897;-78
2022/10/21 05:09:43;;;;;;;37.40;20.30;;;;;;;2.98;84.74;101134.59;1621333;88;27461;-80
2022/10/21 05:12:09;;;;;;;31.75;18.17;;;;;;;2.97;84.75;101132.89;1621285;88;25936;-77
2022/10/21 05:14:36;;;;;;;27.80;15.32;;;;;;;2.96;84.87;101135.20;1617560;88;25877;-77
2022/10/21 05:17:03;;;;;;;24.90;16.52;;;;;;;2.95;84.87;101134.83;1582844;90;25858;-77
2022/10/21 05:19:29;;;;;;;26.33;16.15;;;;;;;2.93;84.99;101131.47;1583349;89;25885;-78
2022/10/21 05:21:55;;;;;;;23.75;15.65;;;;;;;2.94;85.04;101136.28;1586499;89;27488;-78
2022/10/21 05:24:23;;;;;;;27.07;16.17;;;;;;;2.93;85.06;101134.62;1600163;89;25836;-78
2022/10/21 05:26:50;;;;;;;22.27;14.28;;;;;;;2.94;85.16;101128.34;1621753;88;26543;-78
2022/10/21 05:29:17;;;;;;;24.12;15.28;;;;;;;2.96;85.13;101133.03;1628689;87;25868;-79
2022/10/21 05:31:43;;;;;;;27.87;16.42;;;;;;;2.97;85.15;101128.92;1627989;87;25915;-79
2022/10/21 05:34:09;;;;;;;48.83;23.25;;;;;;;2.99;85.07;101124.85;1629932;87;27481;-79
2022/10/21 05:36:36;;;;;;;31.48;18.32;;;;;;;3.01;85.06;101137.00;1629466;87;26691;-78
2022/10/21 05:39:03;;;;;;;35.83;19.02;;;;;;;2.99;85.05;101138.08;1630305;87;25918;-78
2022/10/21 05:41:29;;;;;;;32.20;18.55;;;;;;;2.99;85.21;101132.28;1624707;86;27015;-79
2022/10/21 05:43:55;;;;;;;29.25;15.58;;;;;;;3.02;85.06;101135.17;1622409;87;25871;-78
2022/10/21 05:46:22;;;;;;;31.62;17.45;;;;;;;3.04;85.10;101134.56;1624067;87;27485;-78
2022/10/21 05:48:48;;;;;;;30.37;17.10;;;;;;;3.06;85.17;101138.77;1615871;87;25915;-78
2022/10/21 05:51:14;;;;;;;29.35;17.07;;;;;;;3.08;85.19;101137.30;1626315;86;25892;-78
2022/10/21 05:53:41;;;;;;;34.45;19.07;;;;;;;3.11;85.15;101137.06;1629209;86;25837;-79
2022/10/21 05:56:07;;;;;;;34.98;18.95;;;;;;;3.09;85.07;101129.27;1619542;87;25865;-78
2022/10/21 05:58:34;;;;;;;30.40;19.35;;;;;;;3.11;85.09;101131.77;1609256;86;27463;-79
2022/10/21 06:01:01;;;;;;;35.92;20.23;;;;;;;3.11;85.12;101126.00;1612149;87;26641;-77
2022/10/21 06:03:31;;;;;;;31.87;18.10;;;;;;;3.11;85.14;101131.30;1620806;87;26575;-79
2022/10/21 06:05:59;;;;;;;30.12;17.42;;;;;;;3.12;85.27;101125.53;1619916;87;26594;-77
2022/10/21 06:08:27;;;;;;;35.00;19.70;;;;;;;3.14;85.44;101132.34;1629660;87;25382;-77
2022/10/21 06:11:14;;;;;;;39.38;23.15;;;;;;;3.15;85.45;101123.94;1632548;87;27480;-79
2022/10/21 06:13:40;;;;;;;36.38;20.72;;;;;;;3.13;85.60;101122.75;1630686;87;25894;-78
2022/10/21 06:16:08;;;;;;;41.30;21.90;;;;;;;3.13;85.76;101125.39;1631869;87;25895;-78
2022/10/21 06:18:35;;;;;;;41.65;21.65;;;;;;;3.14;85.86;101124.41;1617379;87;25964;-79
2022/10/21 06:21:02;;;;;;;39.75;21.85;;;;;;;3.16;85.94;101115.52;1619736;88;25769;-78
2022/10/21 06:23:29;;;;;;;34.50;19.73;;;;;;;3.20;86.11;101122.23;1619943;88;27563;-79
2022/10/21 06:26:10;;;;;;;40.43;20.68;;;;;;;3.20;86.16;101120.91;1616625;86;26516;-79
2022/10/21 06:28:40;;;;;;;42.48;20.60;;;;;;;3.21;86.29;101130.55;1631464;87;25795;-78
2022/10/21 06:31:08;;;;;;;38.65;19.23;;;;;;;3.21;86.55;101133.20;1629018;87;25828;-80
2022/10/21 06:33:34;;;;;;;35.70;19.32;;;;;;;3.23;86.66;101132.08;1623273;87;25937;-79
2022/10/21 06:36:01;;;;;;;36.60;19.00;;;;;;;3.27;86.81;101126.06;1630843;86;28311;-78
2022/10/21 06:38:27;;;;;;;29.75;17.23;;;;;;;3.32;86.93;101130.47;1598976;88;25851;-79
2022/10/21 06:41:06;;;;;;;34.98;19.23;;;;;;;3.33;86.83;101138.31;1618428;87;26378;-79
2022/10/21 06:43:32;;;;;;;40.17;19.45;;;;;;;3.31;86.91;101132.30;1623501;87;25895;-79
2022/10/21 06:46:02;;;;;;;29.27;18.45;;;;;;;3.35;87.04;101148.77;1637542;86;25602;-78
2022/10/21 06:48:29;;;;;;;31.07;17.67;;;;;;;3.36;87.16;101144.66;1628584;87;27503;-78
2022/10/21 06:51:02;;;;;;;39.85;20.35;;;;;;;3.40;87.34;101134.16;1625925;87;26355;-80
2022/10/21 06:53:29;;;;;;;36.23;18.35;;;;;;;3.48;87.61;101134.39;1629674;86;25796;-78
2022/10/21 06:56:03;;;;;;;35.88;20.02;;;;;;;3.55;87.65;101125.45;1615806;87;25839;-78
2022/10/21 06:58:30;;;;;;;34.80;18.60;;;;;;;3.62;88.06;101126.11;1602949;87;25927;-78
2022/10/21 07:00:57;;;;;;;96.67;48.48;;;;;;;3.70;88.01;101128.13;1591025;88;28338;-79
2022/10/21 07:03:24;;;;;;;408.68;193.87;;;;;;;3.75;87.94;101120.61;1600395;88;25986;-78
2022/10/21 07:05:59;;;;;;;177.68;95.77;;;;;;;3.76;87.81;101114.35;1602509;88;25874;-78
2022/10/21 07:08:27;;;;;;;452.67;222.35;;;;;;;3.78;88.00;101107.11;1602088;88;25919;-79
2022/10/21 07:10:54;;;;;;;260.52;116.80;;;;;;;3.83;88.09;101104.41;1607032;88;25777;-77
2022/10/21 07:13:22;;;;;;;124.82;66.77;;;;;;;3.87;88.11;101109.80;1600364;88;27509;-80
2022/10/21 07:16:00;;;;;;;66.33;44.33;;;;;;;3.93;88.14;101104.95;1573643;89;25920;-78
2022/10/21 07:18:27;;;;;;;59.05;38.85;;;;;;;3.98;88.21;101102.25;1565930;88;25384;-78
2022/10/21 07:20:53;;;;;;;69.22;49.45;;;;;;;4.02;88.35;101106.31;1582533;88;26542;-78
2022/10/21 07:23:19;;;;;;;59.95;36.70;;;;;;;4.07;88.30;101104.11;1608259;88;25961;-79
2022/10/21 07:25:46;;;;;;;42.83;30.02;;;;;;;4.11;88.33;101112.63;1621157;88;27480;-79
2022/10/21 07:28:13;;;;;;;85.92;71.60;;;;;;;4.15;88.32;101101.63;1615807;88;25783;-79
2022/10/21 07:30:44;;;;;;;45.45;32.90;;;;;;;4.23;88.50;101104.47;1619634;88;26521;-79
2022/10/21 07:33:12;;;;;;;35.45;23.60;;;;;;;4.28;88.45;101110.67;1620406;88;25324;-79
2022/10/21 07:35:39;;;;;;;40.88;25.43;;;;;;;4.32;88.49;101104.97;1611921;88;26687;-80
2022/10/21 07:38:06;;;;;;;34.03;21.73;;;;;;;4.35;88.21;101107.37;1621318;88;28292;-80
2022/10/21 07:40:36;;;;;;;28.62;18.73;;;;;;;4.38;88.18;101104.94;1619785;86;25821;-81
2022/10/21 07:43:02;;;;;;;36.17;21.95;;;;;;;4.43;88.49;101105.35;1619692;88;26548;-81
2022/10/21 07:45:30;;;;;;;42.60;29.37;;;;;;;4.46;88.43;101105.94;1616007;88;26652;-82
2022/10/21 07:47:56;;;;;;;36.10;20.45;;;;;;;4.50;88.27;101101.19;1611246;88;26270;-82
2022/10/21 07:50:22;;;;;;;33.63;19.40;;;;;;;4.56;88.38;101104.14;1636291;86;28286;-82
2022/10/21 07:52:48;;;;;;;39.13;22.50;;;;;;;4.62;88.37;101095.63;1638415;86;25976;-82
2022/10/21 07:55:16;;;;;;;37.88;24.02;;;;;;;4.69;88.47;101100.76;1633346;86;26423;-82
2022/10/21 07:57:43;;;;;;;34.98;21.48;;;;;;;4.75;88.48;101096.70;1642419;86;26897;-82
2022/10/21 08:00:11;;;;;;;58.65;37.48;;;;;;;4.81;88.49;101090.87;1639920;86;25986;-82
2022/10/21 08:02:40;;;;;;;45.75;29.72;;;;;;;4.87;88.22;101096.10;1630494;87;27661;-82
2022/10/21 08:05:06;;;;;;;42.58;25.20;;;;;;;4.93;88.29;101090.23;1629168;87;25857;-81
2022/10/21 08:07:33;;;;;;;50.58;29.80;;;;;;;4.99;88.35;101067.95;1628835;86;25956;-82
2022/10/21 08:10:00;;;;;;;39.75;24.65;;;;;;;5.07;88.39;101068.09;1625280;86;26520;-82
2022/10/21 08:12:26;;;;;;;42.80;26.20;;;;;;;5.15;88.52;101059.44;1620825;87;25797;-81
2022/10/21 08:14:52;;;;;;;38.83;21.07;;;;;;;5.21;88.37;101058.39;1619539;87;27467;-82
2022/10/21 08:17:18;;;;;;;50.28;28.98;;;;;;;5.26;88.24;101059.30;1619243;87;25895;-82
2022/10/21 08:19:45;;;;;;;40.78;24.35;;;;;;;5.33;88.47;101055.91;1616137;87;25930;-81
2022/10/21 08:22:12;;;;;;;48.20;29.77;;;;;;;5.44;88.60;101052.27;1610211;87;26483;-82
2022/10/21 08:24:38;;;;;;;45.90;27.25;;;;;;;5.50;88.43;101047.70;1621596;87;26007;-82
2022/10/21 08:27:05;;;;;;;43.15;28.98;;;;;;;5.54;88.28;101045.09;1621519;88;27486;-82
2022/10/21 08:29:31;;;;;;;51.13;32.67;;;;;;;5.62;88.27;101042.58;1618579;88;25823;-82
2022/10/21 08:31:57;;;;;;;35.15;21.80;;;;;;;5.65;87.93;101040.10;1620104;88;25867;-82
2022/10/21 08:34:23;;;;;;;45.43;26.37;;;;;;;5.69;87.79;101044.17;1621083;87;25873;-82
2022/10/21 08:36:50;;;;;;;43.25;25.10;;;;;;;5.73;87.77;101041.57;1621554;88;25883;-83
2022/10/21 08:39:18;;;;;;;45.38;27.80;;;;;;;5.74;87.56;101036.10;1620081;87;28232;-82
2022/10/21 08:42:15;;;;;;;38.78;24.43;;;;;;;5.77;87.47;101029.18;1618656;88;27005;-82
2022/10/21 08:44:50;;;;;;;34.38;20.75;;;;;;;5.81;87.71;101023.91;1620596;88;25978;-82
2022/10/21 08:47:25;;;;;;;61.50;36.65;;;;;;;5.86;87.59;101026.17;1621540;87;26201;-82
2022/10/21 08:50:24;;;;;;;47.03;25.12;;;;;;;5.89;87.40;101017.89;1620690;87;27653;-84
2022/10/21 08:52:59;;;;;;;66.92;38.95;;;;;;;5.93;87.50;101009.47;1617110;88;28476;-83
2022/10/21 08:55:33;;;;;;;42.48;25.17;;;;;;;6.02;87.92;101002.44;1617501;87;25968;-82
2022/10/21 08:58:02;;;;;;;46.85;26.33;;;;;;;6.08;87.90;100996.52;1617739;87;25830;-82
2022/10/21 09:00:36;;;;;;;41.42;22.35;;;;;;;6.16;87.95;101004.59;1614476;88;26192;-82
2022/10/21 09:03:11;;;;;;;70.50;34.88;;;;;;;6.21;87.73;101004.50;1581563;89;25616;-81
2022/10/21 09:06:18;;;;;;;35.15;19.42;;;;;;;6.26;87.70;101005.39;1613495;88;27495;-82
2022/10/21 09:09:02;;;;;;;29.40;15.78;;;;;;;6.37;88.58;100996.36;1607945;88;25776;-82
2022/10/21 09:11:58;;;;;;;50.52;27.02;;;;;;;6.49;87.99;100999.98;1610154;88;25776;-82
2022/10/21 09:14:42;;;;;;;57.78;27.35;;;;;;;6.55;87.15;101003.85;1600968;88;25799;-80
2022/10/21 09:17:26;;;;;;;70.30;44.98;;;;;;;6.62;86.85;101001.78;1577725;89;25881;-82
2022/10/21 09:20:22;;;;;;;36.15;28.75;;;;;;;6.74;87.12;100998.38;1603371;88;27571;-82
2022/10/21 09:23:37;;;;;;;27.48;16.05;;;;;;;6.84;86.86;100984.00;1581315;88;25894;-83
2022/10/21 09:26:18;;;;;;;102.47;74.10;;;;;;;6.99;87.02;100977.14;1605537;88;25829;-81
2022/10/21 09:28:46;;;;;;;39.50;27.20;;;;;;;7.11;86.25;100960.91;1609360;88;32577;-81
2022/10/21 09:31:16;;;;;;;28.05;22.25;;;;;;;7.17;85.97;100962.45;1601684;88;26131;-82
2022/10/21 09:33:51;;;;;;;29.82;20.02;;;;;;;7.23;85.48;100959.16;1609803;88;27462;-82
2022/10/21 09:36:37;;;;;;;29.72;16.97;;;;;;;7.27;85.12;100957.05;1612439;88;25936;-82
2022/10/21 09:39:14;;;;;;;30.43;16.80;;;;;;;7.32;84.98;100954.72;1572567;89;25865;-82
2022/10/21 09:41:45;;;;;;;24.52;15.08;;;;;;;7.41;84.90;100964.45;1570443;90;26773;-81
2022/10/21 09:44:21;;;;;;;25.05;15.10;;;;;;;7.49;85.06;100957.33;1575789;89;25880;-81
2022/10/21 09:46:50;;;;;;;23.95;14.15;;;;;;;7.56;84.55;100951.72;1607013;88;27655;-81
2022/10/21 09:49:32;;;;;;;22.07;14.35;;;;;;;7.67;84.90;100950.60;1597270;88;25800;-81
2022/10/21 09:52:02;;;;;;;25.95;15.80;;;;;;;7.78;85.27;100938.33;1602059;88;25342;-82
2022/10/21 09:54:37;;;;;;;29.07;16.93;;;;;;;7.88;84.83;100935.02;1607986;88;25985;-82
2022/10/21 09:57:14;;;;;;;27.67;15.60;;;;;;;7.97;85.24;100922.05;1605027;88;26428;-82
2022/10/21 10:00:01;;;;;;;24.55;15.88;;;;;;;8.09;84.57;100918.57;1601785;88;27513;-82
2022/10/21 10:02:37;;;;;;;24.35;15.60;;;;;;;8.15;84.25;100915.24;1606521;88;25796;-80
2022/10/21 10:05:37;;;;;;;24.07;14.98;;;;;;;8.22;83.92;100914.45;1607776;88;25895;-82
2022/10/21 10:08:42;;;;;;;26.77;18.98;;;;;;;8.32;84.22;100904.97;1612027;88;26448;-81
2022/10/21 10:11:15;;;;;;;26.65;16.10;;;;;;;8.46;84.52;100905.67;1608623;88;25390;-82
2022/10/21 10:13:46;;;;;;;24.72;16.23;;;;;;;8.64;84.93;100908.19;1613218;88;27497;-81
2022/10/21 10:16:27;;;;;;;27.07;16.12;;;;;;;8.74;84.27;100911.03;1607538;88;25927;-80
2022/10/21 10:19:18;;;;;;;23.57;16.60;;;;;;;8.79;83.56;100903.33;1597522;88;25887;-80
2022/10/21 10:21:50;;;;;;;25.10;15.55;;;;;;;8.84;82.87;100902.33;1593126;89;25903;-80
2022/10/21 10:24:20;;;;;;;23.00;15.15;;;;;;;8.90;83.10;100889.62;1617128;88;26302;-80
2022/10/21 10:26:48;;;;;;;29.05;15.13;;;;;;;8.98;82.17;100889.61;1614522;88;27507;-80
2022/10/21 10:29:26;;;;;;;22.22;13.90;;;;;;;9.03;82.24;100893.96;1611153;88;25886;-80
2022/10/21 10:31:56;;;;;;;27.55;15.28;;;;;;;9.06;82.07;100878.09;1597726;88;25903;-80
2022/10/21 10:34:33;;;;;;;23.33;15.37;;;;;;;9.08;82.01;100872.08;1581856;89;26189;-80
2022/10/21 10:37:25;;;;;;;20.23;14.38;;;;;;;9.10;81.27;100868.73;1607755;88;25395;-80
2022/10/21 10:39:56;;;;;;;39.88;29.32;;;;;;;9.11;81.00;100861.06;1601912;88;27492;-80
2022/10/21 10:42:33;;;;;;;32.45;20.08;;;;;;;9.13;81.46;100859.05;1610408;88;25929;-79
2022/10/21 10:45:05;;;;;;;44.27;24.50;;;;;;;9.19;81.95;100861.88;1573113;89;26023;-79
2022/10/21 10:47:42;;;;;;;32.83;19.55;;;;;;;9.25;82.37;100852.32;1586274;88;25957;-80
2022/10/21 10:50:47;;;;;;;37.15;21.52;;;;;;;9.29;81.54;100843.79;1584944;89;25961;-80
2022/10/21 10:53:24;;;;;;;35.48;22.95;;;;;;;9.33;81.81;100839.77;1610034;88;27604;-79
2022/10/21 10:56:14;;;;;;;30.95;19.80;;;;;;;9.33;81.18;100832.23;1572766;91;25856;-79
2022/10/21 10:58:49;;;;;;;63.87;34.92;;;;;;;9.34;81.36;100825.90;1617515;88;26421;-79
2022/10/21 11:01:23;;;;;;;65.05;35.38;;;;;;;9.34;81.03;100825.38;1595357;89;26045;-79
2022/10/21 11:03:58;;;;;;;31.45;20.43;;;;;;;9.39;81.06;100819.51;1598555;89;25975;-80
2022/10/21 11:06:41;;;;;;;34.95;20.68;;;;;;;9.45;81.50;100820.17;1598093;87;27493;-79
2022/10/21 11:09:08;;;;;;;34.38;24.60;;;;;;;9.51;81.26;100815.46;1600013;87;25819;-79
2022/10/21 11:11:40;;;;;;;23.70;15.85;;;;;;;9.54;80.81;100822.31;1602684;87;26481;-80
2022/10/21 11:14:16;;;;;;;33.63;21.77;;;;;;;9.53;80.59;100824.64;1549167;90;25900;-79
2022/10/21 11:17:09;;;;;;;30.45;20.45;;;;;;;9.55;80.77;100816.78;1578789;89;25895;-80
2022/10/21 11:19:59;;;;;;;67.70;48.00;;;;;;;9.58;80.57;100807.58;1549819;90;27505;-80
2022/10/21 11:22:46;;;;;;;34.23;22.73;;;;;;;9.61;80.93;100796.52;1586600;88;26538;-80
2022/10/21 11:25:24;;;;;;;35.17;20.27;;;;;;;9.66;80.47;100801.68;1597712;88;25912;-80
2022/10/21 11:28:22;;;;;;;32.25;20.95;;;;;;;9.68;80.40;100799.66;1601654;87;26629;-80
2022/10/21 11:31:29;;;;;;;35.55;23.67;;;;;;;9.70;80.11;100798.14;1594740;87;25955;-79
2022/10/21 11:34:13;;;;;;;34.00;21.82;;;;;;;9.70;80.50;100793.63;1599863;87;27542;-79
2022/10/21 11:36:54;;;;;;;27.32;15.45;;;;;;;9.73;80.05;100787.09;1597728;87;25846;-79
2022/10/21 11:39:47;;;;;;;22.75;13.58;;;;;;;9.73;79.79;100795.12;1591119;88;25838;-79